sensor_id;sensor_type;location;lat;lon;timestamp;P1;durP1;ratioP1;P2;durP2;ratioP2
70337;SDS011;57757;53.198;19.646;2023-09-08T00:00:41;11.00;;;4.80;;
70337;SDS011;57757;53.198;19.646;2023-09-08T00:03:28;10.50;;;5.20;;
70337;SDS011;57757;53.198;19.646;2023-09-08T00:05:55;17.80;;;5.60;;
70337;SDS011;57757;53.198;19.646;2023-09-08T00:08:23;13.70;;;5.10;;
70337;SDS011;57757;53.198;19.646;2023-09-08T00:10:51;12.70;;;4.90;;
70337;SDS011;57757;53.198;19.646;2023-09-08T00:13:19;9.10;;;4.50;;
70337;SDS011;57757;53.198;19.646;2023-09-08T00:15:47;10.90;;;4.60;;
70337;SDS011;57757;53.198;19.646;2023-09-08T00:18:15;8.90;;;4.60;;
70337;SDS011;57757;53.198;19.646;2023-09-08T00:20:43;11.50;;;5.00;;
70337;SDS011;57757;53.198;19.646;2023-09-08T00:23:10;9.20;;;4.70;;
70337;SDS011;57757;53.198;19.646;2023-09-08T00:25:38;12.10;;;5.70;;
70337;SDS011;57757;53.198;19.646;2023-09-08T00:28:05;9.60;;;4.70;;
70337;SDS011;57757;53.198;19.646;2023-09-08T00:30:34;14.50;;;6.80;;
70337;SDS011;57757;53.198;19.646;2023-09-08T00:33:01;9.60;;;4.80;;
70337;SDS011;57757;53.198;19.646;2023-09-08T00:35:29;9.20;;;4.30;;
70337;SDS011;57757;53.198;19.646;2023-09-08T00:37:57;10.80;;;4.80;;
70337;SDS011;57757;53.198;19.646;2023-09-08T00:40:26;10.10;;;4.90;;
70337;SDS011;57757;53.198;19.646;2023-09-08T00:42:54;12.20;;;4.30;;
70337;SDS011;57757;53.198;19.646;2023-09-08T00:45:22;9.90;;;4.90;;
70337;SDS011;57757;53.198;19.646;2023-09-08T00:47:50;15.00;;;7.90;;
70337;SDS011;57757;53.198;19.646;2023-09-08T00:50:18;16.70;;;10.80;;
70337;SDS011;57757;53.198;19.646;2023-09-08T00:52:46;33.50;;;10.80;;
70337;SDS011;57757;53.198;19.646;2023-09-08T00:55:13;12.30;;;6.30;;
70337;SDS011;57757;53.198;19.646;2023-09-08T00:57:41;11.00;;;4.70;;
70337;SDS011;57757;53.198;19.646;2023-09-08T01:00:09;11.10;;;4.40;;
70337;SDS011;57757;53.198;19.646;2023-09-08T01:02:38;12.40;;;4.60;;
70337;SDS011;57757;53.198;19.646;2023-09-08T01:05:06;9.10;;;4.10;;
70337;SDS011;57757;53.198;19.646;2023-09-08T01:07:33;10.50;;;5.00;;
70337;SDS011;57757;53.198;19.646;2023-09-08T01:10:03;8.90;;;4.60;;
70337;SDS011;57757;53.198;19.646;2023-09-08T01:12:33;10.30;;;4.50;;
70337;SDS011;57757;53.198;19.646;2023-09-08T01:15:02;11.00;;;4.10;;
70337;SDS011;57757;53.198;19.646;2023-09-08T01:17:30;9.50;;;4.50;;
70337;SDS011;57757;53.198;19.646;2023-09-08T01:19:59;9.40;;;4.60;;
70337;SDS011;57757;53.198;19.646;2023-09-08T01:25:32;13.20;;;7.40;;
70337;SDS011;57757;53.198;19.646;2023-09-08T01:28:02;12.70;;;5.90;;
70337;SDS011;57757;53.198;19.646;2023-09-08T01:30:32;11.70;;;5.00;;
70337;SDS011;57757;53.198;19.646;2023-09-08T01:33:01;8.60;;;4.30;;
70337;SDS011;57757;53.198;19.646;2023-09-08T01:35:29;9.50;;;4.30;;
70337;SDS011;57757;53.198;19.646;2023-09-08T01:37:57;13.00;;;5.10;;
70337;SDS011;57757;53.198;19.646;2023-09-08T01:40:24;8.70;;;4.20;;
70337;SDS011;57757;53.198;19.646;2023-09-08T01:42:52;10.20;;;4.20;;
70337;SDS011;57757;53.198;19.646;2023-09-08T01:45:20;7.90;;;4.20;;
70337;SDS011;57757;53.198;19.646;2023-09-08T01:47:47;10.40;;;4.10;;
70337;SDS011;57757;53.198;19.646;2023-09-08T01:50:16;9.60;;;4.00;;
70337;SDS011;57757;53.198;19.646;2023-09-08T01:52:49;9.80;;;4.10;;
70337;SDS011;57757;53.198;19.646;2023-09-08T01:55:17;11.50;;;6.00;;
70337;SDS011;57757;53.198;19.646;2023-09-08T01:57:44;14.50;;;7.20;;
70337;SDS011;57757;53.198;19.646;2023-09-08T02:00:13;11.40;;;5.90;;
70337;SDS011;57757;53.198;19.646;2023-09-08T02:02:41;10.50;;;5.10;;
70337;SDS011;57757;53.198;19.646;2023-09-08T02:05:09;10.90;;;5.00;;
70337;SDS011;57757;53.198;19.646;2023-09-08T02:07:37;11.60;;;4.90;;
70337;SDS011;57757;53.198;19.646;2023-09-08T02:10:04;11.20;;;4.40;;
70337;SDS011;57757;53.198;19.646;2023-09-08T02:12:32;8.90;;;4.60;;
70337;SDS011;57757;53.198;19.646;2023-09-08T02:14:59;11.10;;;4.80;;
70337;SDS011;57757;53.198;19.646;2023-09-08T02:17:27;9.90;;;4.80;;
70337;SDS011;57757;53.198;19.646;2023-09-08T02:19:55;10.10;;;4.50;;
70337;SDS011;57757;53.198;19.646;2023-09-08T02:22:22;9.20;;;5.00;;
70337;SDS011;57757;53.198;19.646;2023-09-08T02:24:50;24.10;;;11.20;;
70337;SDS011;57757;53.198;19.646;2023-09-08T02:27:19;44.70;;;17.80;;
70337;SDS011;57757;53.198;19.646;2023-09-08T02:29:46;26.20;;;11.30;;
70337;SDS011;57757;53.198;19.646;2023-09-08T02:32:14;14.30;;;6.30;;
70337;SDS011;57757;53.198;19.646;2023-09-08T02:34:41;12.90;;;6.10;;
70337;SDS011;57757;53.198;19.646;2023-09-08T02:37:10;11.60;;;5.20;;
70337;SDS011;57757;53.198;19.646;2023-09-08T02:39:37;13.40;;;6.00;;
70337;SDS011;57757;53.198;19.646;2023-09-08T02:42:05;11.20;;;5.20;;
70337;SDS011;57757;53.198;19.646;2023-09-08T02:44:32;12.30;;;5.50;;
70337;SDS011;57757;53.198;19.646;2023-09-08T02:47:00;10.20;;;5.30;;
70337;SDS011;57757;53.198;19.646;2023-09-08T02:49:28;10.30;;;5.10;;
70337;SDS011;57757;53.198;19.646;2023-09-08T02:51:55;9.30;;;4.90;;
70337;SDS011;57757;53.198;19.646;2023-09-08T02:54:23;9.40;;;4.70;;
70337;SDS011;57757;53.198;19.646;2023-09-08T02:56:50;10.50;;;4.90;;
70337;SDS011;57757;53.198;19.646;2023-09-08T02:59:18;9.60;;;4.70;;
70337;SDS011;57757;53.198;19.646;2023-09-08T03:01:46;9.80;;;5.50;;
70337;SDS011;57757;53.198;19.646;2023-09-08T03:04:14;14.00;;;5.20;;
70337;SDS011;57757;53.198;19.646;2023-09-08T03:06:42;14.30;;;6.60;;
70337;SDS011;57757;53.198;19.646;2023-09-08T03:09:09;12.10;;;5.90;;
70337;SDS011;57757;53.198;19.646;2023-09-08T03:11:36;10.50;;;4.80;;
70337;SDS011;57757;53.198;19.646;2023-09-08T03:14:04;14.20;;;5.80;;
70337;SDS011;57757;53.198;19.646;2023-09-08T03:16:32;14.60;;;5.20;;
70337;SDS011;57757;53.198;19.646;2023-09-08T03:19:00;14.70;;;5.70;;
70337;SDS011;57757;53.198;19.646;2023-09-08T03:21:27;11.40;;;5.20;;
70337;SDS011;57757;53.198;19.646;2023-09-08T03:23:55;11.70;;;5.70;;
70337;SDS011;57757;53.198;19.646;2023-09-08T03:26:22;14.40;;;5.50;;
70337;SDS011;57757;53.198;19.646;2023-09-08T03:28:49;15.50;;;5.80;;
70337;SDS011;57757;53.198;19.646;2023-09-08T03:31:17;16.00;;;5.60;;
70337;SDS011;57757;53.198;19.646;2023-09-08T03:33:45;14.20;;;5.60;;
70337;SDS011;57757;53.198;19.646;2023-09-08T03:36:13;14.70;;;6.40;;
70337;SDS011;57757;53.198;19.646;2023-09-08T03:38:41;15.70;;;5.70;;
70337;SDS011;57757;53.198;19.646;2023-09-08T03:41:08;11.90;;;5.30;;
70337;SDS011;57757;53.198;19.646;2023-09-08T03:43:36;14.10;;;5.30;;
70337;SDS011;57757;53.198;19.646;2023-09-08T03:46:04;12.20;;;5.00;;
70337;SDS011;57757;53.198;19.646;2023-09-08T03:48:31;11.20;;;6.10;;
70337;SDS011;57757;53.198;19.646;2023-09-08T03:50:59;11.30;;;5.50;;
70337;SDS011;57757;53.198;19.646;2023-09-08T03:53:26;11.10;;;5.20;;
70337;SDS011;57757;53.198;19.646;2023-09-08T03:55:54;12.10;;;4.90;;
70337;SDS011;57757;53.198;19.646;2023-09-08T03:58:22;10.30;;;5.00;;
70337;SDS011;57757;53.198;19.646;2023-09-08T04:00:49;12.10;;;5.20;;
70337;SDS011;57757;53.198;19.646;2023-09-08T04:03:17;10.60;;;5.50;;
70337;SDS011;57757;53.198;19.646;2023-09-08T04:05:44;12.40;;;5.40;;
70337;SDS011;57757;53.198;19.646;2023-09-08T04:08:12;10.80;;;5.20;;
70337;SDS011;57757;53.198;19.646;2023-09-08T04:10:39;9.60;;;5.30;;
70337;SDS011;57757;53.198;19.646;2023-09-08T04:13:07;9.50;;;5.30;;
70337;SDS011;57757;53.198;19.646;2023-09-08T04:15:34;10.40;;;5.30;;
70337;SDS011;57757;53.198;19.646;2023-09-08T04:18:01;11.20;;;5.70;;
70337;SDS011;57757;53.198;19.646;2023-09-08T04:20:30;12.50;;;5.50;;
70337;SDS011;57757;53.198;19.646;2023-09-08T04:22:57;11.10;;;6.40;;
70337;SDS011;57757;53.198;19.646;2023-09-08T04:25:25;11.20;;;5.80;;
70337;SDS011;57757;53.198;19.646;2023-09-08T04:27:52;10.70;;;5.40;;
70337;SDS011;57757;53.198;19.646;2023-09-08T04:30:20;11.40;;;5.20;;
70337;SDS011;57757;53.198;19.646;2023-09-08T04:32:48;11.80;;;5.80;;
70337;SDS011;57757;53.198;19.646;2023-09-08T04:35:16;9.20;;;5.00;;
70337;SDS011;57757;53.198;19.646;2023-09-08T04:37:44;11.80;;;5.50;;
70337;SDS011;57757;53.198;19.646;2023-09-08T04:40:11;9.90;;;5.20;;
70337;SDS011;57757;53.198;19.646;2023-09-08T04:42:39;10.20;;;5.10;;
70337;SDS011;57757;53.198;19.646;2023-09-08T04:45:06;11.70;;;5.20;;
70337;SDS011;57757;53.198;19.646;2023-09-08T04:47:35;10.50;;;5.30;;
70337;SDS011;57757;53.198;19.646;2023-09-08T04:50:02;9.70;;;5.30;;
70337;SDS011;57757;53.198;19.646;2023-09-08T04:52:31;11.00;;;5.40;;
70337;SDS011;57757;53.198;19.646;2023-09-08T04:54:58;12.00;;;5.60;;
70337;SDS011;57757;53.198;19.646;2023-09-08T04:57:25;13.20;;;5.30;;
70337;SDS011;57757;53.198;19.646;2023-09-08T04:59:53;11.40;;;6.00;;
70337;SDS011;57757;53.198;19.646;2023-09-08T05:02:20;10.10;;;5.30;;
70337;SDS011;57757;53.198;19.646;2023-09-08T05:04:48;9.00;;;4.50;;
70337;SDS011;57757;53.198;19.646;2023-09-08T05:07:16;9.60;;;4.60;;
70337;SDS011;57757;53.198;19.646;2023-09-08T05:09:45;9.90;;;4.60;;
70337;SDS011;57757;53.198;19.646;2023-09-08T05:12:13;10.80;;;4.60;;
70337;SDS011;57757;53.198;19.646;2023-09-08T05:14:40;10.00;;;4.90;;
70337;SDS011;57757;53.198;19.646;2023-09-08T05:17:08;10.60;;;4.50;;
70337;SDS011;57757;53.198;19.646;2023-09-08T05:19:36;9.70;;;4.90;;
70337;SDS011;57757;53.198;19.646;2023-09-08T05:22:04;9.90;;;4.90;;
70337;SDS011;57757;53.198;19.646;2023-09-08T05:24:33;10.40;;;4.70;;
70337;SDS011;57757;53.198;19.646;2023-09-08T05:27:00;10.80;;;5.10;;
70337;SDS011;57757;53.198;19.646;2023-09-08T05:29:28;10.70;;;4.80;;
70337;SDS011;57757;53.198;19.646;2023-09-08T05:31:55;11.70;;;5.10;;
70337;SDS011;57757;53.198;19.646;2023-09-08T05:34:23;10.20;;;5.00;;
70337;SDS011;57757;53.198;19.646;2023-09-08T05:36:51;10.10;;;5.00;;
70337;SDS011;57757;53.198;19.646;2023-09-08T05:39:18;10.00;;;4.90;;
70337;SDS011;57757;53.198;19.646;2023-09-08T05:41:46;9.10;;;4.80;;
70337;SDS011;57757;53.198;19.646;2023-09-08T05:44:14;9.20;;;4.90;;
70337;SDS011;57757;53.198;19.646;2023-09-08T05:46:41;9.40;;;4.80;;
70337;SDS011;57757;53.198;19.646;2023-09-08T05:49:09;8.60;;;4.20;;
70337;SDS011;57757;53.198;19.646;2023-09-08T05:51:37;14.10;;;5.00;;
70337;SDS011;57757;53.198;19.646;2023-09-08T05:54:04;11.90;;;4.60;;
70337;SDS011;57757;53.198;19.646;2023-09-08T05:56:33;11.70;;;5.00;;
70337;SDS011;57757;53.198;19.646;2023-09-08T05:59:01;11.60;;;5.20;;
70337;SDS011;57757;53.198;19.646;2023-09-08T06:01:29;10.80;;;5.00;;
70337;SDS011;57757;53.198;19.646;2023-09-08T06:03:58;10.30;;;4.80;;
70337;SDS011;57757;53.198;19.646;2023-09-08T06:06:26;10.60;;;5.00;;
70337;SDS011;57757;53.198;19.646;2023-09-08T06:08:57;10.70;;;5.20;;
70337;SDS011;57757;53.198;19.646;2023-09-08T06:11:25;10.30;;;5.50;;
70337;SDS011;57757;53.198;19.646;2023-09-08T06:13:54;10.80;;;5.70;;
70337;SDS011;57757;53.198;19.646;2023-09-08T06:16:29;9.30;;;5.20;;
70337;SDS011;57757;53.198;19.646;2023-09-08T06:19:05;12.20;;;5.10;;
70337;SDS011;57757;53.198;19.646;2023-09-08T06:21:33;11.90;;;6.10;;
70337;SDS011;57757;53.198;19.646;2023-09-08T06:24:00;12.90;;;5.70;;
70337;SDS011;57757;53.198;19.646;2023-09-08T06:26:28;13.90;;;5.80;;
70337;SDS011;57757;53.198;19.646;2023-09-08T06:28:56;14.50;;;6.10;;
70337;SDS011;57757;53.198;19.646;2023-09-08T06:31:23;13.90;;;6.10;;
70337;SDS011;57757;53.198;19.646;2023-09-08T06:33:51;13.80;;;6.60;;
70337;SDS011;57757;53.198;19.646;2023-09-08T06:36:20;14.70;;;6.40;;
70337;SDS011;57757;53.198;19.646;2023-09-08T06:38:48;14.30;;;6.60;;
70337;SDS011;57757;53.198;19.646;2023-09-08T06:41:15;13.70;;;6.40;;
70337;SDS011;57757;53.198;19.646;2023-09-08T06:43:44;14.40;;;6.90;;
70337;SDS011;57757;53.198;19.646;2023-09-08T06:46:12;13.80;;;6.50;;
70337;SDS011;57757;53.198;19.646;2023-09-08T06:48:39;12.10;;;6.10;;
70337;SDS011;57757;53.198;19.646;2023-09-08T06:51:07;10.70;;;6.00;;
70337;SDS011;57757;53.198;19.646;2023-09-08T06:53:35;15.50;;;7.10;;
70337;SDS011;57757;53.198;19.646;2023-09-08T06:56:03;10.70;;;5.40;;
70337;SDS011;57757;53.198;19.646;2023-09-08T06:58:31;15.40;;;6.10;;
70337;SDS011;57757;53.198;19.646;2023-09-08T07:00:58;12.60;;;6.40;;
70337;SDS011;57757;53.198;19.646;2023-09-08T07:03:26;14.20;;;5.80;;
70337;SDS011;57757;53.198;19.646;2023-09-08T07:05:56;10.10;;;5.90;;
70337;SDS011;57757;53.198;19.646;2023-09-08T07:08:24;12.40;;;6.30;;
70337;SDS011;57757;53.198;19.646;2023-09-08T07:10:52;12.60;;;6.40;;
70337;SDS011;57757;53.198;19.646;2023-09-08T07:13:22;10.20;;;5.90;;
70337;SDS011;57757;53.198;19.646;2023-09-08T07:15:50;10.20;;;5.60;;
70337;SDS011;57757;53.198;19.646;2023-09-08T07:18:17;10.90;;;5.80;;
70337;SDS011;57757;53.198;19.646;2023-09-08T07:20:46;11.40;;;5.90;;
70337;SDS011;57757;53.198;19.646;2023-09-08T07:23:18;11.00;;;5.50;;
70337;SDS011;57757;53.198;19.646;2023-09-08T07:25:49;9.90;;;5.20;;
70337;SDS011;57757;53.198;19.646;2023-09-08T07:28:17;11.10;;;5.50;;
70337;SDS011;57757;53.198;19.646;2023-09-08T07:30:44;12.60;;;5.40;;
70337;SDS011;57757;53.198;19.646;2023-09-08T07:33:12;13.10;;;6.10;;
70337;SDS011;57757;53.198;19.646;2023-09-08T07:35:40;13.50;;;5.90;;
70337;SDS011;57757;53.198;19.646;2023-09-08T07:38:07;13.00;;;5.20;;
70337;SDS011;57757;53.198;19.646;2023-09-08T07:40:35;11.00;;;5.00;;
70337;SDS011;57757;53.198;19.646;2023-09-08T07:43:03;9.90;;;5.10;;
70337;SDS011;57757;53.198;19.646;2023-09-08T07:45:31;12.80;;;5.90;;
70337;SDS011;57757;53.198;19.646;2023-09-08T07:47:58;8.90;;;4.60;;
70337;SDS011;57757;53.198;19.646;2023-09-08T07:50:27;11.00;;;4.90;;
70337;SDS011;57757;53.198;19.646;2023-09-08T07:52:56;11.10;;;5.50;;
70337;SDS011;57757;53.198;19.646;2023-09-08T07:55:24;10.50;;;5.00;;
70337;SDS011;57757;53.198;19.646;2023-09-08T07:57:55;11.60;;;5.30;;
70337;SDS011;57757;53.198;19.646;2023-09-08T08:00:24;11.70;;;5.30;;
70337;SDS011;57757;53.198;19.646;2023-09-08T08:02:53;10.30;;;5.60;;
70337;SDS011;57757;53.198;19.646;2023-09-08T08:05:24;11.10;;;5.10;;
70337;SDS011;57757;53.198;19.646;2023-09-08T08:07:52;10.70;;;5.40;;
70337;SDS011;57757;53.198;19.646;2023-09-08T08:10:20;8.80;;;5.00;;
70337;SDS011;57757;53.198;19.646;2023-09-08T08:12:47;8.40;;;4.90;;
70337;SDS011;57757;53.198;19.646;2023-09-08T08:15:15;9.40;;;4.90;;
70337;SDS011;57757;53.198;19.646;2023-09-08T08:17:43;12.90;;;5.10;;
70337;SDS011;57757;53.198;19.646;2023-09-08T08:20:11;11.60;;;5.50;;
70337;SDS011;57757;53.198;19.646;2023-09-08T08:22:45;11.30;;;5.70;;
70337;SDS011;57757;53.198;19.646;2023-09-08T08:25:13;11.40;;;5.20;;
70337;SDS011;57757;53.198;19.646;2023-09-08T08:27:41;12.20;;;5.60;;
70337;SDS011;57757;53.198;19.646;2023-09-08T08:30:09;9.10;;;5.30;;
70337;SDS011;57757;53.198;19.646;2023-09-08T08:32:38;12.40;;;5.80;;
70337;SDS011;57757;53.198;19.646;2023-09-08T08:35:06;10.10;;;5.40;;
70337;SDS011;57757;53.198;19.646;2023-09-08T08:37:34;12.30;;;5.90;;
70337;SDS011;57757;53.198;19.646;2023-09-08T08:40:01;11.90;;;5.40;;
70337;SDS011;57757;53.198;19.646;2023-09-08T08:42:31;15.30;;;5.70;;
70337;SDS011;57757;53.198;19.646;2023-09-08T08:44:59;12.70;;;6.10;;
70337;SDS011;57757;53.198;19.646;2023-09-08T08:47:27;17.70;;;5.40;;
70337;SDS011;57757;53.198;19.646;2023-09-08T08:49:59;14.90;;;6.00;;
70337;SDS011;57757;53.198;19.646;2023-09-08T08:52:28;16.50;;;6.10;;
70337;SDS011;57757;53.198;19.646;2023-09-08T08:54:57;11.20;;;4.80;;
70337;SDS011;57757;53.198;19.646;2023-09-08T08:57:25;18.30;;;5.80;;
70337;SDS011;57757;53.198;19.646;2023-09-08T08:59:55;13.00;;;5.20;;
70337;SDS011;57757;53.198;19.646;2023-09-08T09:02:23;14.70;;;5.20;;
70337;SDS011;57757;53.198;19.646;2023-09-08T09:04:54;15.80;;;5.40;;
70337;SDS011;57757;53.198;19.646;2023-09-08T09:07:21;12.30;;;5.20;;
70337;SDS011;57757;53.198;19.646;2023-09-08T09:09:49;13.20;;;5.30;;
70337;SDS011;57757;53.198;19.646;2023-09-08T09:12:18;15.60;;;5.50;;
70337;SDS011;57757;53.198;19.646;2023-09-08T09:14:46;13.10;;;5.10;;
70337;SDS011;57757;53.198;19.646;2023-09-08T09:17:17;10.60;;;4.80;;
70337;SDS011;57757;53.198;19.646;2023-09-08T09:19:44;15.10;;;4.10;;
70337;SDS011;57757;53.198;19.646;2023-09-08T09:22:12;12.30;;;4.50;;
70337;SDS011;57757;53.198;19.646;2023-09-08T09:24:40;13.00;;;5.10;;
70337;SDS011;57757;53.198;19.646;2023-09-08T09:27:11;10.70;;;4.40;;
70337;SDS011;57757;53.198;19.646;2023-09-08T09:29:47;9.80;;;4.50;;
70337;SDS011;57757;53.198;19.646;2023-09-08T09:32:17;16.50;;;5.10;;
70337;SDS011;57757;53.198;19.646;2023-09-08T09:34:52;14.20;;;5.20;;
70337;SDS011;57757;53.198;19.646;2023-09-08T09:37:21;9.50;;;4.20;;
70337;SDS011;57757;53.198;19.646;2023-09-08T09:39:49;9.00;;;4.50;;
70337;SDS011;57757;53.198;19.646;2023-09-08T09:42:19;12.30;;;4.70;;
70337;SDS011;57757;53.198;19.646;2023-09-08T09:44:48;13.70;;;5.10;;
70337;SDS011;57757;53.198;19.646;2023-09-08T09:47:21;12.20;;;5.40;;
70337;SDS011;57757;53.198;19.646;2023-09-08T09:49:49;10.30;;;4.80;;
70337;SDS011;57757;53.198;19.646;2023-09-08T09:52:21;15.70;;;4.70;;
70337;SDS011;57757;53.198;19.646;2023-09-08T09:54:58;14.70;;;4.80;;
70337;SDS011;57757;53.198;19.646;2023-09-08T09:57:26;9.60;;;4.80;;
70337;SDS011;57757;53.198;19.646;2023-09-08T09:59:54;10.60;;;4.50;;
70337;SDS011;57757;53.198;19.646;2023-09-08T10:02:23;12.70;;;4.80;;
70337;SDS011;57757;53.198;19.646;2023-09-08T10:04:53;14.70;;;5.70;;
70337;SDS011;57757;53.198;19.646;2023-09-08T10:07:21;11.20;;;4.80;;
70337;SDS011;57757;53.198;19.646;2023-09-08T10:09:50;9.60;;;4.70;;
70337;SDS011;57757;53.198;19.646;2023-09-08T10:12:26;9.00;;;4.50;;
70337;SDS011;57757;53.198;19.646;2023-09-08T10:14:59;13.30;;;4.60;;
70337;SDS011;57757;53.198;19.646;2023-09-08T10:17:27;11.70;;;4.60;;
70337;SDS011;57757;53.198;19.646;2023-09-08T10:19:58;13.80;;;5.10;;
70337;SDS011;57757;53.198;19.646;2023-09-08T10:22:29;10.10;;;4.40;;
70337;SDS011;57757;53.198;19.646;2023-09-08T10:25:01;9.40;;;4.10;;
70337;SDS011;57757;53.198;19.646;2023-09-08T10:27:36;9.50;;;4.30;;
70337;SDS011;57757;53.198;19.646;2023-09-08T10:30:08;8.40;;;5.00;;
70337;SDS011;57757;53.198;19.646;2023-09-08T10:32:37;11.80;;;4.80;;
70337;SDS011;57757;53.198;19.646;2023-09-08T10:35:08;11.80;;;5.10;;
70337;SDS011;57757;53.198;19.646;2023-09-08T10:37:37;13.40;;;4.90;;
70337;SDS011;57757;53.198;19.646;2023-09-08T10:43:07;10.30;;;4.40;;
70337;SDS011;57757;53.198;19.646;2023-09-08T10:45:39;12.70;;;4.70;;
70337;SDS011;57757;53.198;19.646;2023-09-08T10:48:08;8.00;;;4.40;;
70337;SDS011;57757;53.198;19.646;2023-09-08T10:50:39;10.10;;;4.00;;
70337;SDS011;57757;53.198;19.646;2023-09-08T10:53:15;11.30;;;4.20;;
70337;SDS011;57757;53.198;19.646;2023-09-08T10:55:46;8.10;;;4.40;;
70337;SDS011;57757;53.198;19.646;2023-09-08T10:58:37;12.30;;;4.50;;
70337;SDS011;57757;53.198;19.646;2023-09-08T11:01:12;9.60;;;4.50;;
70337;SDS011;57757;53.198;19.646;2023-09-08T11:03:43;9.30;;;4.40;;
70337;SDS011;57757;53.198;19.646;2023-09-08T11:06:16;8.40;;;4.00;;
70337;SDS011;57757;53.198;19.646;2023-09-08T11:08:45;9.30;;;4.80;;
70337;SDS011;57757;53.198;19.646;2023-09-08T11:11:14;11.20;;;4.60;;
70337;SDS011;57757;53.198;19.646;2023-09-08T11:13:43;10.30;;;4.90;;
70337;SDS011;57757;53.198;19.646;2023-09-08T11:16:14;9.50;;;5.00;;
70337;SDS011;57757;53.198;19.646;2023-09-08T11:18:42;9.50;;;4.40;;
70337;SDS011;57757;53.198;19.646;2023-09-08T11:21:10;9.00;;;4.30;;
70337;SDS011;57757;53.198;19.646;2023-09-08T11:23:38;8.10;;;4.00;;
70337;SDS011;57757;53.198;19.646;2023-09-08T11:26:06;9.20;;;4.80;;
70337;SDS011;57757;53.198;19.646;2023-09-08T11:28:36;11.30;;;4.60;;
70337;SDS011;57757;53.198;19.646;2023-09-08T11:31:05;9.10;;;3.80;;
70337;SDS011;57757;53.198;19.646;2023-09-08T11:33:33;12.50;;;4.60;;
70337;SDS011;57757;53.198;19.646;2023-09-08T11:36:02;10.50;;;4.70;;
70337;SDS011;57757;53.198;19.646;2023-09-08T11:38:30;9.20;;;4.50;;
70337;SDS011;57757;53.198;19.646;2023-09-08T11:40:59;8.50;;;4.10;;
70337;SDS011;57757;53.198;19.646;2023-09-08T11:43:26;9.10;;;4.60;;
70337;SDS011;57757;53.198;19.646;2023-09-08T11:45:58;8.50;;;4.40;;
70337;SDS011;57757;53.198;19.646;2023-09-08T11:48:26;7.50;;;4.30;;
70337;SDS011;57757;53.198;19.646;2023-09-08T11:50:54;10.10;;;3.90;;
70337;SDS011;57757;53.198;19.646;2023-09-08T11:53:22;7.70;;;4.30;;
70337;SDS011;57757;53.198;19.646;2023-09-08T11:55:50;8.70;;;4.60;;
70337;SDS011;57757;53.198;19.646;2023-09-08T11:58:18;8.30;;;3.60;;
70337;SDS011;57757;53.198;19.646;2023-09-08T12:00:47;7.20;;;3.90;;
70337;SDS011;57757;53.198;19.646;2023-09-08T12:03:17;7.60;;;4.00;;
70337;SDS011;57757;53.198;19.646;2023-09-08T12:05:45;8.20;;;3.80;;
70337;SDS011;57757;53.198;19.646;2023-09-08T12:08:19;8.40;;;4.10;;
70337;SDS011;57757;53.198;19.646;2023-09-08T12:10:47;7.50;;;4.30;;
70337;SDS011;57757;53.198;19.646;2023-09-08T12:13:20;7.90;;;4.50;;
70337;SDS011;57757;53.198;19.646;2023-09-08T12:15:51;8.30;;;4.40;;
70337;SDS011;57757;53.198;19.646;2023-09-08T12:18:19;8.60;;;4.60;;
70337;SDS011;57757;53.198;19.646;2023-09-08T12:21:05;10.90;;;4.80;;
70337;SDS011;57757;53.198;19.646;2023-09-08T12:23:33;7.50;;;3.90;;
70337;SDS011;57757;53.198;19.646;2023-09-08T12:26:01;8.60;;;5.20;;
70337;SDS011;57757;53.198;19.646;2023-09-08T12:28:30;10.50;;;4.80;;
70337;SDS011;57757;53.198;19.646;2023-09-08T12:30:58;9.20;;;4.90;;
70337;SDS011;57757;53.198;19.646;2023-09-08T12:33:26;7.20;;;4.50;;
70337;SDS011;57757;53.198;19.646;2023-09-08T12:35:54;9.80;;;4.30;;
70337;SDS011;57757;53.198;19.646;2023-09-08T12:38:21;8.70;;;4.60;;
70337;SDS011;57757;53.198;19.646;2023-09-08T12:40:50;7.50;;;5.30;;
70337;SDS011;57757;53.198;19.646;2023-09-08T12:43:18;8.20;;;4.60;;
70337;SDS011;57757;53.198;19.646;2023-09-08T12:45:55;11.10;;;6.10;;
70337;SDS011;57757;53.198;19.646;2023-09-08T12:48:24;7.70;;;4.90;;
70337;SDS011;57757;53.198;19.646;2023-09-08T12:50:52;8.40;;;5.40;;
70337;SDS011;57757;53.198;19.646;2023-09-08T12:53:19;7.50;;;5.90;;
70337;SDS011;57757;53.198;19.646;2023-09-08T12:55:48;10.60;;;5.50;;
70337;SDS011;57757;53.198;19.646;2023-09-08T12:58:16;8.00;;;6.10;;
70337;SDS011;57757;53.198;19.646;2023-09-08T13:00:44;9.10;;;6.70;;
70337;SDS011;57757;53.198;19.646;2023-09-08T13:03:12;7.30;;;5.60;;
70337;SDS011;57757;53.198;19.646;2023-09-08T13:05:40;8.80;;;6.20;;
70337;SDS011;57757;53.198;19.646;2023-09-08T13:08:08;8.60;;;6.70;;
70337;SDS011;57757;53.198;19.646;2023-09-08T13:10:36;8.60;;;6.70;;
70337;SDS011;57757;53.198;19.646;2023-09-08T13:13:04;13.80;;;6.70;;
70337;SDS011;57757;53.198;19.646;2023-09-08T13:15:32;9.00;;;6.90;;
70337;SDS011;57757;53.198;19.646;2023-09-08T13:18:00;7.80;;;6.50;;
70337;SDS011;57757;53.198;19.646;2023-09-08T13:20:27;9.00;;;7.90;;
70337;SDS011;57757;53.198;19.646;2023-09-08T13:22:55;8.00;;;6.80;;
70337;SDS011;57757;53.198;19.646;2023-09-08T13:25:22;7.60;;;6.80;;
70337;SDS011;57757;53.198;19.646;2023-09-08T13:27:51;11.10;;;8.40;;
70337;SDS011;57757;53.198;19.646;2023-09-08T13:30:18;8.90;;;7.00;;
70337;SDS011;57757;53.198;19.646;2023-09-08T13:32:48;8.70;;;7.40;;
70337;SDS011;57757;53.198;19.646;2023-09-08T13:35:16;8.90;;;7.40;;
70337;SDS011;57757;53.198;19.646;2023-09-08T13:37:44;11.10;;;6.90;;
70337;SDS011;57757;53.198;19.646;2023-09-08T13:40:11;10.30;;;7.70;;
70337;SDS011;57757;53.198;19.646;2023-09-08T13:42:41;10.80;;;7.50;;
70337;SDS011;57757;53.198;19.646;2023-09-08T13:45:08;9.50;;;8.30;;
70337;SDS011;57757;53.198;19.646;2023-09-08T13:47:36;9.20;;;8.20;;
70337;SDS011;57757;53.198;19.646;2023-09-08T13:50:06;8.80;;;8.00;;
70337;SDS011;57757;53.198;19.646;2023-09-08T13:52:37;8.90;;;8.00;;
70337;SDS011;57757;53.198;19.646;2023-09-08T13:55:10;9.70;;;7.70;;
70337;SDS011;57757;53.198;19.646;2023-09-08T13:57:58;17.00;;;9.00;;
70337;SDS011;57757;53.198;19.646;2023-09-08T14:00:29;9.70;;;8.40;;
70337;SDS011;57757;53.198;19.646;2023-09-08T14:02:58;11.00;;;7.30;;
70337;SDS011;57757;53.198;19.646;2023-09-08T14:05:33;9.30;;;8.30;;
70337;SDS011;57757;53.198;19.646;2023-09-08T14:08:04;11.10;;;8.30;;
70337;SDS011;57757;53.198;19.646;2023-09-08T14:10:45;11.40;;;8.80;;
70337;SDS011;57757;53.198;19.646;2023-09-08T14:13:15;9.00;;;8.20;;
70337;SDS011;57757;53.198;19.646;2023-09-08T14:15:43;9.40;;;8.40;;
70337;SDS011;57757;53.198;19.646;2023-09-08T14:18:10;10.60;;;8.40;;
70337;SDS011;57757;53.198;19.646;2023-09-08T14:20:38;9.90;;;8.90;;
70337;SDS011;57757;53.198;19.646;2023-09-08T14:23:05;10.20;;;9.30;;
70337;SDS011;57757;53.198;19.646;2023-09-08T14:25:35;11.00;;;9.90;;
70337;SDS011;57757;53.198;19.646;2023-09-08T14:28:02;11.80;;;10.00;;
70337;SDS011;57757;53.198;19.646;2023-09-08T14:30:33;11.40;;;9.60;;
70337;SDS011;57757;53.198;19.646;2023-09-08T14:33:02;12.40;;;11.30;;
70337;SDS011;57757;53.198;19.646;2023-09-08T14:35:31;11.80;;;10.70;;
70337;SDS011;57757;53.198;19.646;2023-09-08T14:37:58;11.70;;;10.50;;
70337;SDS011;57757;53.198;19.646;2023-09-08T14:40:26;14.40;;;11.40;;